createdAt,value
2018-10-19T00:02:11.462Z,10.49
2018-10-19T00:04:40.667Z,10.37
2018-10-19T00:07:08.964Z,10.39
2018-10-19T00:09:37.440Z,10.42
2018-10-19T00:12:06.678Z,10.47
2018-10-19T00:14:34.951Z,10.46
2018-10-19T00:17:03.314Z,10.51
2018-10-19T00:19:45.694Z,10.39
2018-10-19T00:22:13.962Z,10.36
2018-10-19T00:24:42.231Z,10.24
2018-10-19T00:27:10.592Z,10.10
2018-10-19T00:29:38.808Z,10.15
2018-10-19T00:32:07.111Z,10.02
2018-10-19T00:34:35.383Z,9.92
2018-10-19T00:37:03.754Z,9.90
2018-10-19T00:39:32.036Z,10.01
2018-10-19T00:42:00.319Z,10.13
2018-10-19T00:44:28.592Z,9.96
2018-10-19T00:46:56.896Z,10.06
2018-10-19T00:49:25.164Z,9.90
2018-10-19T00:51:53.458Z,9.89
2018-10-19T00:54:21.723Z,9.87
2018-10-19T00:56:50.004Z,9.72
2018-10-19T00:59:18.291Z,9.76
2018-10-19T01:01:46.587Z,9.82
2018-10-19T01:04:14.875Z,9.80
2018-10-19T01:06:43.148Z,9.85
2018-10-19T01:09:11.991Z,9.86
2018-10-19T01:11:40.243Z,9.97
2018-10-19T01:14:08.526Z,9.95
2018-10-19T01:16:36.799Z,9.87
2018-10-19T01:19:05.359Z,9.86
2018-10-19T01:21:33.632Z,9.77
2018-10-19T01:24:01.967Z,9.78
2018-10-19T01:26:30.234Z,9.70
2018-10-19T01:28:58.547Z,9.74
2018-10-19T01:31:26.804Z,9.75
2018-10-19T01:33:55.090Z,9.89
2018-10-19T01:36:27.536Z,9.78
2018-10-19T01:38:55.846Z,9.84
2018-10-19T01:41:24.123Z,9.88
2018-10-19T01:43:52.403Z,9.95
2018-10-19T01:46:20.691Z,9.91
2018-10-19T01:48:49.000Z,9.89
2018-10-19T01:51:17.356Z,9.88
2018-10-19T01:53:45.587Z,9.79
2018-10-19T01:56:13.852Z,9.78
2018-10-19T01:58:42.613Z,9.82
2018-10-19T02:01:10.871Z,9.94
2018-10-19T02:03:39.192Z,9.82
2018-10-19T02:06:07.487Z,9.82
2018-10-19T02:08:35.771Z,9.79
2018-10-19T02:11:04.039Z,9.82
2018-10-19T02:13:32.338Z,9.86
2018-10-19T02:16:00.615Z,9.86
2018-10-19T02:18:28.904Z,9.77
2018-10-19T02:20:57.229Z,9.81
2018-10-19T02:23:25.492Z,9.83
2018-10-19T02:25:53.828Z,9.83
2018-10-19T02:28:22.143Z,9.80
2018-10-19T02:30:50.439Z,9.80
2018-10-19T02:33:18.802Z,9.77
2018-10-19T02:35:47.027Z,9.78
2018-10-19T02:38:15.320Z,9.78
2018-10-19T02:40:43.604Z,9.83
2018-10-19T02:43:12.002Z,9.94
2018-10-19T02:45:41.827Z,10.02
2018-10-19T02:48:10.879Z,10.13
2018-10-19T02:50:39.176Z,10.21
2018-10-19T02:53:07.559Z,10.36
2018-10-19T02:55:35.859Z,10.36
2018-10-19T02:58:04.187Z,10.38
2018-10-19T03:00:32.487Z,10.42
2018-10-19T03:03:00.828Z,10.56
2018-10-19T03:05:29.081Z,10.53
2018-10-19T03:07:57.386Z,10.63
2018-10-19T03:10:25.675Z,10.59
2018-10-19T03:12:53.947Z,10.63
2018-10-19T03:15:22.259Z,10.61
2018-10-19T03:19:19.689Z,10.54
2018-10-19T03:21:47.955Z,10.51
2018-10-19T03:24:16.253Z,10.50
2018-10-19T03:26:44.532Z,10.48
2018-10-19T03:29:12.852Z,10.46
2018-10-19T03:31:41.141Z,10.34
2018-10-19T03:34:09.469Z,10.34
2018-10-19T03:36:37.734Z,10.23
2018-10-19T03:39:07.260Z,10.19
2018-10-19T03:41:35.508Z,10.16
2018-10-19T03:44:03.795Z,10.19
2018-10-19T03:46:32.106Z,10.09
2018-10-19T03:49:00.388Z,10.03
2018-10-19T03:51:28.683Z,10.07
2018-10-19T03:53:56.963Z,10.04
2018-10-19T03:56:25.252Z,10.04
2018-10-19T03:58:53.529Z,10.04
2018-10-19T04:01:21.832Z,10.09
2018-10-19T04:03:50.107Z,10.07
2018-10-19T04:06:18.411Z,10.11
2018-10-19T04:08:47.091Z,10.10
2018-10-19T04:11:15.438Z,10.09
2018-10-19T04:13:44.064Z,10.15
2018-10-19T04:16:12.517Z,10.16
2018-10-19T04:18:40.794Z,10.11
2018-10-19T04:21:09.173Z,10.09
2018-10-19T04:23:37.492Z,10.11
2018-10-19T04:26:06.074Z,9.95
2018-10-19T04:28:34.359Z,9.95
2018-10-19T04:31:02.668Z,9.93
2018-10-19T04:33:31.407Z,10.00
2018-10-19T04:35:59.696Z,9.99
2018-10-19T04:38:27.972Z,10.08
2018-10-19T04:40:56.332Z,10.11
2018-10-19T04:43:27.504Z,10.27
2018-10-19T04:45:55.849Z,10.35
2018-10-19T04:48:24.126Z,10.45
2018-10-19T04:50:52.453Z,10.37
2018-10-19T04:53:20.748Z,10.38
2018-10-19T04:55:49.035Z,10.34
2018-10-19T04:58:17.303Z,10.35
2018-10-19T05:00:45.604Z,10.26
2018-10-19T05:03:13.962Z,10.31
2018-10-19T05:05:42.257Z,10.39
2018-10-19T05:08:10.543Z,10.39
2018-10-19T05:10:38.788Z,10.33
2018-10-19T05:13:07.170Z,10.39
2018-10-19T05:15:35.412Z,10.39
2018-10-19T05:18:04.024Z,10.37
2018-10-19T05:20:32.303Z,10.38
2018-10-19T05:23:00.659Z,10.38
2018-10-19T05:25:28.907Z,10.44
2018-10-19T05:27:57.219Z,10.40
2018-10-19T05:30:25.818Z,10.40
2018-10-19T05:32:54.211Z,10.32
2018-10-19T05:35:22.451Z,10.25
2018-10-19T05:37:50.747Z,10.16
2018-10-19T05:40:19.053Z,10.16
2018-10-19T05:42:47.356Z,10.14
2018-10-19T05:45:15.643Z,10.23
2018-10-19T05:47:43.948Z,10.21
2018-10-19T05:50:12.842Z,10.28
2018-10-19T05:52:41.064Z,10.30
2018-10-19T05:55:10.191Z,10.37
2018-10-19T05:57:38.683Z,10.37
2018-10-19T06:00:08.136Z,10.37
2018-10-19T06:02:36.489Z,10.39
2018-10-19T06:05:05.058Z,10.39
2018-10-19T06:07:33.336Z,10.39
2018-10-19T06:10:01.616Z,10.37
2018-10-19T06:12:29.917Z,10.46
2018-10-19T06:14:58.247Z,10.49
2018-10-19T06:17:26.572Z,10.54
2018-10-19T06:19:54.881Z,10.52
2018-10-19T06:22:23.216Z,10.54
2018-10-19T06:24:51.503Z,10.69
2018-10-19T06:27:20.063Z,10.78
2018-10-19T06:29:48.512Z,10.81
2018-10-19T06:32:17.214Z,11.00
2018-10-19T06:34:45.531Z,10.87
2018-10-19T06:37:13.829Z,10.94
2018-10-19T06:39:42.243Z,11.02
2018-10-19T06:42:10.613Z,11.17
2018-10-19T06:44:38.911Z,11.16
2018-10-19T06:47:07.436Z,11.28
2018-10-19T06:49:35.714Z,11.36
2018-10-19T06:52:04.038Z,11.49
2018-10-19T06:54:32.371Z,11.66
2018-10-19T06:57:00.696Z,11.80
2018-10-19T06:59:29.109Z,11.93
2018-10-19T07:01:57.411Z,12.08
2018-10-19T07:04:25.676Z,12.02
2018-10-19T07:06:53.999Z,12.03
2018-10-19T07:09:22.529Z,12.12
2018-10-19T07:11:50.857Z,12.13
2018-10-19T07:14:19.156Z,12.08
2018-10-19T07:16:47.597Z,12.01
2018-10-19T07:19:15.912Z,12.30
2018-10-19T07:21:44.286Z,12.43
2018-10-19T07:24:12.788Z,12.48
2018-10-19T07:26:41.111Z,12.51
2018-10-19T07:29:09.516Z,12.67
2018-10-19T07:31:37.769Z,12.50
2018-10-19T07:34:06.095Z,12.75
2018-10-19T07:36:34.554Z,12.72
2018-10-19T07:39:02.855Z,12.74
2018-10-19T07:41:31.171Z,12.79
2018-10-19T07:43:59.528Z,12.67
2018-10-19T07:46:27.799Z,12.93
2018-10-19T07:48:56.119Z,13.17
2018-10-19T07:51:24.468Z,13.34
2018-10-19T07:53:52.841Z,13.56
2018-10-19T07:56:21.131Z,13.54
2018-10-19T07:58:49.432Z,13.63
2018-10-19T08:01:17.833Z,13.77
2018-10-19T08:03:46.056Z,14.13
2018-10-19T08:06:14.386Z,14.18
2018-10-19T08:08:42.703Z,13.91
2018-10-19T08:11:11.201Z,13.76
2018-10-19T08:13:39.475Z,13.34
2018-10-19T08:16:07.776Z,14.01
2018-10-19T08:18:36.085Z,13.66
2018-10-19T08:21:04.961Z,14.21
2018-10-19T08:23:33.230Z,14.90
2018-10-19T08:26:01.885Z,14.77
2018-10-19T08:28:30.146Z,15.44
2018-10-19T08:30:58.447Z,15.48
2018-10-19T08:33:26.809Z,15.93
2018-10-19T08:35:55.113Z,17.41
2018-10-19T08:38:23.430Z,18.51
2018-10-19T08:40:51.885Z,19.62
2018-10-19T08:43:21.232Z,21.75
2018-10-19T08:45:49.522Z,23.03
2018-10-19T08:48:17.859Z,23.73
2018-10-19T08:50:46.152Z,23.59
2018-10-19T08:53:14.534Z,24.29
2018-10-19T08:55:42.819Z,24.62
2018-10-19T08:58:11.171Z,25.92
2018-10-19T09:00:39.443Z,25.36
2018-10-19T09:03:07.756Z,24.74
2018-10-19T09:05:36.063Z,23.33
2018-10-19T09:08:04.383Z,24.56
2018-10-19T09:10:32.675Z,25.87
2018-10-19T09:13:00.987Z,27.48
2018-10-19T09:15:29.292Z,26.60
2018-10-19T09:17:57.592Z,25.82
2018-10-19T09:20:25.883Z,25.39
2018-10-19T09:22:54.604Z,26.04
2018-10-19T09:25:22.931Z,25.67
2018-10-19T09:27:51.250Z,25.03
2018-10-19T09:30:19.596Z,24.21
2018-10-19T09:32:47.931Z,23.45
2018-10-19T09:35:16.342Z,22.57
2018-10-19T09:37:44.567Z,21.73
2018-10-19T09:40:12.882Z,20.18
2018-10-19T09:42:41.213Z,20.02
2018-10-19T09:45:09.953Z,21.01
2018-10-19T09:47:38.267Z,22.79
2018-10-19T09:50:07.106Z,21.68
2018-10-19T09:52:36.147Z,21.26
2018-10-19T09:55:05.117Z,21.55
2018-10-19T09:57:33.367Z,21.21
2018-10-19T10:00:01.687Z,20.25
2018-10-19T10:02:30.003Z,20.05
2018-10-19T10:04:58.367Z,19.52
2018-10-19T10:07:27.063Z,19.37
2018-10-19T10:09:55.603Z,19.39
2018-10-19T10:12:23.899Z,19.19
2018-10-19T10:14:52.314Z,19.43
2018-10-19T10:17:20.527Z,19.59
2018-10-19T10:19:48.839Z,19.56
2018-10-19T10:22:17.227Z,19.31
2018-10-19T10:24:45.578Z,19.69
2018-10-19T10:27:13.837Z,20.62
2018-10-19T10:29:42.147Z,21.54
2018-10-19T10:32:10.488Z,21.28
2018-10-19T10:34:39.068Z,20.71
2018-10-19T10:37:07.394Z,20.27
2018-10-19T10:39:35.751Z,21.05
2018-10-19T10:42:04.430Z,21.73
2018-10-19T10:44:32.754Z,23.04
2018-10-19T10:47:01.055Z,22.65
2018-10-19T10:49:29.385Z,22.70
2018-10-19T10:51:57.735Z,22.88
2018-10-19T10:54:26.042Z,22.55
2018-10-19T10:56:54.358Z,23.57
2018-10-19T10:59:22.675Z,27.06
2018-10-19T11:01:50.984Z,27.00
2018-10-19T11:04:19.332Z,27.89
2018-10-19T11:06:47.635Z,29.90
2018-10-19T11:09:16.579Z,29.21
2018-10-19T11:11:44.887Z,31.18
2018-10-19T11:14:13.232Z,31.52
2018-10-19T11:16:41.543Z,32.88
2018-10-19T11:19:09.969Z,31.26
2018-10-19T11:21:38.383Z,30.63
2018-10-19T11:24:06.744Z,30.24
2018-10-19T11:26:35.056Z,31.97
2018-10-19T11:29:03.363Z,32.95
2018-10-19T11:31:31.698Z,31.26
2018-10-19T11:34:00.023Z,31.92
2018-10-19T11:36:28.408Z,34.13
2018-10-19T11:38:56.733Z,32.86
2018-10-19T11:41:25.051Z,34.81
2018-10-19T11:43:53.344Z,35.48
2018-10-19T11:46:21.900Z,34.27
2018-10-19T11:48:50.343Z,34.06
2018-10-19T11:51:18.908Z,33.09
2018-10-19T11:53:47.220Z,29.12
2018-10-19T11:56:15.547Z,29.38
2018-10-19T11:58:43.855Z,27.86
2018-10-19T12:01:12.246Z,28.12
2018-10-19T12:03:40.584Z,25.91
2018-10-19T12:06:08.859Z,23.40
2018-10-19T12:08:37.163Z,24.10
2018-10-19T12:11:05.995Z,23.41
2018-10-19T12:13:34.303Z,25.85
2018-10-19T12:16:02.623Z,26.48
2018-10-19T12:18:30.963Z,27.71
2018-10-19T12:20:59.373Z,30.79
2018-10-19T12:23:27.631Z,31.99
2018-10-19T12:25:56.009Z,34.66
2018-10-19T12:28:24.275Z,33.20
2018-10-19T12:30:52.600Z,31.64
2018-10-19T12:33:20.910Z,32.48
2018-10-19T12:35:49.232Z,33.53
2018-10-19T12:38:17.535Z,33.70
2018-10-19T12:40:45.883Z,32.14
2018-10-19T12:43:14.254Z,30.49
2018-10-19T12:46:51.539Z,28.00
2018-10-19T12:49:22.131Z,25.21
2018-10-19T12:51:50.477Z,23.95
2018-10-19T12:54:18.950Z,22.97
2018-10-19T12:56:47.202Z,22.04
2018-10-19T12:59:15.602Z,21.77
2018-10-19T13:01:43.931Z,22.11
2018-10-19T13:04:12.244Z,26.10
2018-10-19T13:06:40.548Z,28.26
2018-10-19T13:09:10.791Z,28.59
2018-10-19T13:11:39.167Z,29.63
2018-10-19T13:14:07.479Z,29.35
2018-10-19T13:16:35.792Z,28.35
2018-10-19T13:19:04.160Z,27.69
2018-10-19T13:21:32.455Z,26.55
2018-10-19T13:24:00.805Z,26.77
2018-10-19T13:26:29.111Z,24.91
2018-10-19T13:28:57.421Z,25.38
2018-10-19T13:31:25.730Z,26.28
2018-10-19T13:33:54.216Z,27.69
2018-10-19T13:36:22.557Z,27.41
2018-10-19T13:38:50.859Z,25.72
2018-10-19T13:41:19.213Z,24.06
2018-10-19T13:43:47.502Z,23.33
2018-10-19T13:46:15.862Z,23.33
2018-10-19T13:48:44.155Z,22.12
2018-10-19T13:51:12.623Z,21.69
2018-10-19T13:53:40.817Z,21.28
2018-10-19T13:56:09.135Z,21.47
2018-10-19T13:58:37.444Z,20.97
2018-10-19T14:01:06.552Z,20.64
2018-10-19T14:03:34.847Z,20.31
2018-10-19T14:06:03.172Z,20.37
2018-10-19T14:08:31.467Z,20.37
2018-10-19T14:10:59.806Z,20.17
2018-10-19T14:13:28.100Z,20.34
2018-10-19T14:15:56.408Z,20.32
2018-10-19T14:18:24.731Z,20.63
2018-10-19T14:20:53.050Z,21.63
2018-10-19T14:23:21.363Z,22.23
2018-10-19T14:25:49.687Z,23.02
2018-10-19T14:28:18.011Z,22.79
2018-10-19T14:30:46.333Z,22.15
2018-10-19T14:33:14.745Z,22.26
2018-10-19T14:35:42.974Z,22.02
2018-10-19T14:38:11.316Z,21.83
2018-10-19T14:40:39.614Z,20.97
2018-10-19T14:43:08.639Z,20.78
2018-10-19T14:45:36.952Z,20.60
2018-10-19T14:48:05.312Z,20.45
2018-10-19T14:50:35.102Z,20.67
2018-10-19T14:53:03.462Z,19.71
2018-10-19T14:55:32.100Z,19.54
2018-10-19T14:58:00.414Z,18.98
2018-10-19T15:00:28.735Z,18.81
2018-10-19T15:02:57.248Z,18.36
2018-10-19T15:05:25.525Z,18.19
2018-10-19T15:07:53.856Z,18.19
2018-10-19T15:10:23.084Z,18.07
2018-10-19T15:12:51.763Z,18.32
2018-10-19T15:15:22.369Z,18.62
2018-10-19T15:17:50.932Z,18.71
2018-10-19T15:20:19.895Z,18.30
2018-10-19T15:22:48.227Z,18.47
2018-10-19T15:25:16.533Z,18.88
2018-10-19T15:27:45.985Z,19.70
2018-10-19T15:30:16.068Z,20.14
2018-10-19T15:32:44.303Z,19.66
2018-10-19T15:35:12.611Z,20.14
2018-10-19T15:37:41.230Z,19.87
2018-10-19T15:40:10.211Z,19.14
2018-10-19T15:42:38.738Z,19.03
2018-10-19T15:45:08.738Z,18.11
2018-10-19T15:47:37.037Z,17.55
2018-10-19T15:50:05.498Z,17.66
2018-10-19T15:52:33.812Z,17.22
2018-10-19T15:55:02.139Z,16.74
2018-10-19T15:57:30.496Z,16.45
2018-10-19T15:59:58.853Z,16.31
2018-10-19T16:02:27.119Z,16.13
2018-10-19T16:04:55.422Z,16.04
2018-10-19T16:07:23.733Z,15.72
2018-10-19T16:09:52.041Z,15.50
2018-10-19T16:12:20.366Z,15.26
2018-10-19T16:14:48.689Z,15.06
2018-10-19T16:17:16.999Z,14.84
2018-10-19T16:19:45.303Z,14.54
2018-10-19T16:22:13.635Z,14.32
2018-10-19T16:24:41.975Z,14.21
2018-10-19T16:27:10.304Z,14.03
2018-10-19T16:29:39.010Z,13.60
2018-10-19T16:32:07.798Z,13.30
2018-10-19T16:34:36.266Z,13.16
2018-10-19T16:37:04.696Z,13.06
2018-10-19T16:39:32.979Z,12.83
2018-10-19T16:42:01.334Z,12.71
2018-10-19T16:44:29.599Z,12.76
2018-10-19T16:46:58.531Z,12.60
2018-10-19T16:49:26.833Z,12.27
2018-10-19T16:51:55.147Z,12.07
2018-10-19T16:54:23.479Z,11.89
2018-10-19T16:56:51.790Z,11.77
2018-10-19T16:59:20.107Z,11.60
2018-10-19T17:01:48.404Z,11.58
2018-10-19T17:04:16.862Z,11.46
2018-10-19T17:06:45.160Z,11.49
2018-10-19T17:09:14.398Z,11.39
2018-10-19T17:11:43.059Z,11.32
2018-10-19T17:14:11.652Z,11.34
2018-10-19T17:16:39.983Z,11.46
2018-10-19T17:19:08.746Z,11.55
2018-10-19T17:21:37.107Z,11.61
2018-10-19T17:24:05.549Z,11.83
2018-10-19T17:26:33.894Z,11.85
2018-10-19T17:29:02.251Z,11.93
2018-10-19T17:31:30.705Z,11.97
2018-10-19T17:33:58.996Z,11.96
2018-10-19T17:36:27.288Z,11.97
2018-10-19T17:38:55.604Z,12.11
2018-10-19T17:41:23.952Z,12.06
2018-10-19T17:43:52.288Z,12.19
2018-10-19T17:46:20.582Z,12.41
2018-10-19T17:48:48.940Z,12.37
2018-10-19T17:51:17.295Z,12.50
2018-10-19T17:53:45.572Z,12.53
2018-10-19T17:56:13.852Z,12.54
2018-10-19T17:58:42.176Z,12.41
2018-10-19T18:01:10.491Z,12.53
2018-10-19T18:03:39.262Z,12.56
2018-10-19T18:06:07.594Z,12.55
2018-10-19T18:08:36.232Z,12.62
2018-10-19T18:11:05.023Z,12.60
2018-10-19T18:13:33.331Z,12.63
2018-10-19T18:16:01.692Z,12.51
2018-10-19T18:18:30.108Z,12.51
2018-10-19T18:20:58.392Z,12.26
2018-10-19T18:23:26.833Z,12.39
2018-10-19T18:25:55.061Z,12.45
2018-10-19T18:28:23.348Z,12.40
2018-10-19T18:30:51.679Z,12.30
2018-10-19T18:33:20.004Z,12.11
2018-10-19T18:35:48.303Z,12.09
2018-10-19T18:38:16.761Z,12.21
2018-10-19T18:40:45.435Z,12.22
2018-10-19T18:43:13.730Z,12.17
2018-10-19T18:45:42.007Z,12.08
2018-10-19T18:48:10.340Z,12.02
2018-10-19T18:50:38.670Z,11.98
2018-10-19T18:53:07.050Z,12.05
2018-10-19T18:55:35.263Z,12.06
2018-10-19T18:58:03.615Z,12.06
2018-10-19T19:00:31.890Z,12.04
2018-10-19T19:03:00.278Z,12.20
2018-10-19T19:05:28.579Z,12.16
2018-10-19T19:07:56.926Z,12.09
2018-10-19T19:10:25.186Z,12.13
2018-10-19T19:12:58.567Z,12.27
2018-10-19T19:15:27.161Z,12.28
2018-10-19T19:17:55.451Z,12.26
2018-10-19T19:20:25.612Z,12.15
2018-10-19T19:22:53.945Z,12.23
2018-10-19T19:25:27.407Z,12.34
2018-10-19T19:27:55.708Z,12.24
2018-10-19T19:30:24.123Z,12.20
2018-10-19T19:32:57.724Z,12.18
2018-10-19T19:35:26.049Z,12.21
2018-10-19T19:37:54.367Z,12.16
2018-10-19T19:40:22.680Z,12.13
2018-10-19T19:42:52.603Z,12.13
2018-10-19T19:45:20.915Z,12.01
2018-10-19T19:47:54.300Z,12.03
2018-10-19T19:50:22.595Z,12.07
2018-10-19T19:52:50.975Z,11.99
2018-10-19T19:55:19.332Z,12.05
2018-10-19T19:57:47.612Z,11.82
2018-10-19T20:00:15.913Z,11.83
2018-10-19T20:02:44.223Z,11.88
2018-10-19T20:05:12.552Z,11.86
2018-10-19T20:07:41.067Z,11.74
2018-10-19T20:10:09.392Z,11.78
2018-10-19T20:12:37.858Z,11.80
2018-10-19T20:15:07.587Z,11.83
2018-10-19T20:17:35.927Z,11.67
2018-10-19T20:20:04.310Z,11.59
2018-10-19T20:22:32.600Z,11.56
2018-10-19T20:25:00.872Z,11.55
2018-10-19T20:27:29.174Z,11.57
2018-10-19T20:29:57.443Z,11.50
2018-10-19T20:32:25.802Z,11.49
2018-10-19T20:34:54.213Z,11.37
2018-10-19T20:37:22.519Z,11.43
2018-10-19T20:39:50.803Z,11.50
2018-10-19T20:42:19.116Z,11.59
2018-10-19T20:44:47.416Z,11.63
2018-10-19T20:47:15.981Z,11.66
2018-10-19T20:49:44.203Z,11.64
2018-10-19T20:52:12.506Z,11.67
2018-10-19T20:54:40.811Z,11.69
2018-10-19T20:57:09.316Z,11.67
2018-10-19T20:59:37.616Z,11.69
2018-10-19T21:02:06.191Z,11.64
2018-10-19T21:04:34.439Z,11.69
2018-10-19T21:07:02.807Z,11.64
2018-10-19T21:09:31.122Z,11.73
2018-10-19T21:11:59.439Z,11.72
2018-10-19T21:14:27.727Z,11.71
2018-10-19T21:16:56.057Z,11.80
2018-10-19T21:19:24.399Z,11.90
2018-10-19T21:21:52.650Z,11.84
2018-10-19T21:24:20.936Z,11.85
2018-10-19T21:26:49.402Z,11.73
2018-10-19T21:29:18.024Z,11.72
2018-10-19T21:31:46.419Z,11.65
2018-10-19T21:34:14.704Z,11.61
2018-10-19T21:36:43.083Z,11.54
2018-10-19T21:39:12.227Z,11.46
2018-10-19T21:41:41.027Z,11.38
2018-10-19T21:44:09.377Z,11.22
2018-10-19T21:46:37.996Z,10.90
2018-10-19T21:49:06.496Z,10.83
2018-10-19T21:51:34.986Z,10.65
2018-10-19T21:54:03.286Z,10.42
2018-10-19T21:56:31.699Z,10.31
2018-10-19T21:59:00.034Z,10.07
2018-10-19T22:01:28.860Z,10.01
2018-10-19T22:03:57.163Z,9.96
2018-10-19T22:06:25.443Z,9.91
2018-10-19T22:08:53.735Z,9.91
2018-10-19T22:11:22.620Z,9.92
2018-10-19T22:13:50.891Z,9.97
2018-10-19T22:16:19.171Z,10.15
2018-10-19T22:18:47.455Z,10.28
2018-10-19T22:21:15.740Z,10.37
2018-10-19T22:23:44.061Z,10.39
2018-10-19T22:26:12.395Z,10.41
2018-10-19T22:28:40.651Z,10.52
2018-10-19T22:31:09.096Z,10.55
2018-10-19T22:33:37.361Z,10.67
2018-10-19T22:36:05.682Z,10.80
2018-10-19T22:38:33.992Z,10.78
2018-10-19T22:41:02.311Z,10.68
2018-10-19T22:43:30.627Z,10.70
2018-10-19T22:45:58.920Z,10.74
2018-10-19T22:48:27.235Z,10.79
2018-10-19T22:50:55.519Z,10.81
2018-10-19T22:53:23.816Z,10.89
2018-10-19T22:55:52.107Z,10.84
2018-10-19T22:58:20.443Z,10.90
2018-10-19T23:00:48.731Z,10.91
2018-10-19T23:03:17.026Z,10.91
2018-10-19T23:05:45.500Z,10.77
2018-10-19T23:08:13.807Z,10.71
2018-10-19T23:10:42.588Z,10.71
2018-10-19T23:13:10.988Z,10.70
2018-10-19T23:15:39.240Z,10.64
2018-10-19T23:18:07.565Z,10.73
2018-10-19T23:20:35.863Z,10.69
2018-10-19T23:23:04.233Z,10.70
2018-10-19T23:25:32.508Z,10.86
2018-10-19T23:28:00.804Z,10.83
2018-10-19T23:30:29.116Z,11.00
2018-10-19T23:32:57.542Z,10.89
2018-10-19T23:35:25.829Z,10.96
2018-10-19T23:37:54.108Z,10.98
2018-10-19T23:40:22.432Z,10.92
2018-10-19T23:42:50.716Z,10.85
2018-10-19T23:45:19.039Z,10.90
2018-10-19T23:47:47.351Z,10.90
2018-10-19T23:50:15.667Z,10.81
2018-10-19T23:52:43.938Z,10.75
2018-10-19T23:55:12.535Z,10.84
2018-10-19T23:57:40.771Z,10.79
